Terminal Aerodrome Forecast
Issued by NWS Corpus Christi, TX

Home | Current Version | Previous Version | Text Only | Print | Product List | Glossary On
Versions: 1 2 3 4 5 6 7 8 9 10 11 12 13 14 15 16 17 18 19 20 21 22 23 24 25 26
575
FTUS44 KCRP 061131
TAFVCT
TAF
KVCT 061131Z 0612/0712 23003KT 6SM BR SKC
      TEMPO 0612/0614 3SM BR
     FM061430 26007KT P6SM SKC
     FM061900 33008KT P6SM SKC
     FM070400 36007KT P6SM SCT012
     FM070800 36005KT 4SM BR BKN005=

USA.gov is the U.S. government's official web portal to all federal, state and local government web resources and services.